Saint Petersburg, FL (33715)

3:30 PM EDT on July 24, 2016 (GMT -0400)
Tierra Verde | | Change Station

Elev 0 ft 27.69 °N, 82.72 °W | Updated 14 seconds ago

Clear
Clear
90.9 °F
Feels Like 99 °F
N
7.0
Wind Variable Wind from NNE
Gusts 10.0 mph

Today
High -- | Low -- °F
--% Chance of Precip.
Yesterday
High -- | Low -- °F
Precip. -- in
Pressure 30.00 in
Visibility 10.0 miles
Clouds Clear
Heat Index 99 °F
Dew Point 72 °F
Humidity 55%
Rainfall 0.00 in
Snow Depth Not available.
6:49 AM 8:24 PM
Waning Gibbous, 74% visible
METAR KSPG 241853Z 24008KT 10SM CLR 29/22 A3000 RMK AO2 PK WND 19030/1806 RAB24E35 SLP157 P0000 T02890222
Pressure 30.00 in
Visibility 10.0 miles
Clouds Clear
Heat Index 99 °F
Dew Point 72 °F
Humidity 55%
Rainfall 0.00 in
Snow Depth Not available.
6:49 AM 8:24 PM
Waning Gibbous, 74% visible
METAR KSPG 241853Z 24008KT 10SM CLR 29/22 A3000 RMK AO2 PK WND 19030/1806 RAB24E35 SLP157 P0000 T02890222

10-Day Weather Forecast

Almanac

Astronomy

Jul. 24, 2016 Rise Set
Actual Time
Civil Twilight
Nautical Twilight
Astronomical Twilight
Moon
Length of Visible Light
Length of Day
Tomorrow will be .
, % of the Moon is Illuminated

Today's Extremes

State Highs State Lows

Community

WunderPhotos

Upload Photos

1,927,172 photos uploaded!

WunderBlog® & News

Nearby

Air Quality

  Air Quality AQ Index Pollutant
Not available.

Snow Depth

Station Depth Elevation

Earthquake Activity

City Distance Mag. Time & Date
Minimum magnitude displayed is 2.5.

Coastal Water Temperatures

Place Temperature

Stations

Nearby Weather Stations

Station Location Temp. Windchill Dew Point Humidity Wind Precip. Elev Updated Type
                   

Watches & Warnings

There are currently no watches in effect.